메인 페이지
METAR-TAF:

METAR-TAF

공항 :

산살바도르, 엘살바도르

위도: 13-42N, 경도: 089-07W, 고도: 616m

현재 날씨관측

예보는 8 시간 11분 전, 22:50시(UTC)에 발표되었습니다.
4kt
온도 22°C
습도 94%
기압 1012 hPa
시정: 3000m
고도 1300ft 상공 흐림
약한비,

METAR: MSSS 202250Z 18004KT 3000 -RA OVC013 22/21 Q1011 A2987

시각: 01:01 (07:01 UTC)

예보

예보는 2 시간 31분 전, 04:30시(UTC)에 발표되었습니다.
예보 대상 시간: 21일 06시부터 22일 06시까지 (UTC)
동남동5kt
시정: 3000m
고도 1000ft 상공 구름 많음
고도 3700ft 상공 구름 조금, 적란운.
고도 4000ft 상공 구름 많음
강한비
21일 1700시부터 (UTC)
동남동5kt
시정: 8000m
고도 2000ft 상공 구름 보통
고도 3700ft 상공 구름 조금, 적란운.
고도 6500ft 상공 구름 보통
22일 0100시부터 (UTC)
남동6kt
시정 10km 이상
고도 1000ft 상공 구름 조금
고도 2000ft 상공 구름 보통
고도 3700ft 상공 구름 조금, 적란운.
고도 4000ft 상공 구름 많음

TAF: MSSS 210430Z 2106/2206 11005KT 3000 +RA BKN010 FEW037CB BKN040 TX25/2119Z TN22/2111Z FM211700 12005KT 8000 RA SCT020 FEW037CB SCT065 FM220100 13006KT 9999 FEW010 SCT020 FEW037CB BKN040

4,000개 이상의 공항 관측 자료 및 예보 (METAR 및 TAF 보고).

지도상에서 검색 가능한 기상관측소가 노란 점과 빨간 점으로 표시되어 있습니다.

기상관측소 명을 보려면 표시 위로 마우스를 이동하세요.

날씨 관측과 예보를 보려면 클릭하세요.

지도 변경 : 확대하려면 엑스 표시가 있는 녹색 버튼, 축소하려면 빼기 표시가 있는 녹색 버튼, 다음 페이지의 지도를 보려면 녹색 화살표를 클릭하세요.


METAR-TAF: